SKBQ Airport Information

Runway Information
Runway 05 Length 9842 ft width 148 ft
Elevation 98 ft Threshold 0 ft Heading 40
Runway 23 Length 9842 ft Width 148 ft
Elevation 98 ft Threshold 0 ft Heading 220
Airport Frequencies
Type APP Name BARRANQUIL Frequency 119.1 MHZ
Type ATIS Name ATIS Frequency 113.7 MHZ
Type GND Name GND Frequency 121.9 MHZ
Type RDO Name BARRANQUIL Frequency 348.8 MHZ
Type TWR Name TWR Frequency 118.1 MHZ
Airport Navaids
Type NDB Name Barranquilla Frequency 264 KHZ
Type VOR-DME Name Barranquilla Frequency 113700 KHZ
Airport Weather Information & NOTAM
ADDS - METARS form results

(0850 UTC 24 April 2018)
 
METAR text: SKBQ 240800Z 01008KT 9999 SCT010 BKN200 26/25 A2979
Conditions at: SKBQ (BARRANQUILLA/ERN, CO) observed 0800 UTC 24 April 2018
Temperature: 26.0°C (79°F)
Dewpoint: 25.0°C (77°F) [RH = 94%]
Pressure (altimeter): 29.79 inches Hg (1008.9 mb)
Winds: from the N (10 degrees) at 9 MPH (8 knots; 4.2 m/s)
Visibility: 6 or more miles (10+ km)
Ceiling: 20000 feet AGL
Clouds: scattered clouds at 1000 feet AGL
broken clouds at 20000 feet AGL
Weather: no significant weather observed at this time